![]() | Areti (Oliver Cole, Non Runner) | 0/1 | REMOVED | detail | 100.00 | 120.00 | 270.00 | 0.00 | 0 | / 132423 | 490.46 | 0.00 | |
![]() | Garth Spirit (Robbie Llewellyn, William Carver) | 100/1 | LOSER | 390.00 | detail | 100.00 | 120.00 | 270.00 | 0.37 | 2686 | / 132423 | 490.46 | 5.48 |
![]() | Kinetic Impact (Charles Hills, Callum Rodriguez) | 3/2 | LOSER | 2.70 | detail | 2.88 | 2.58 | 2.86 | 0.81 | 36074 | / 132423 | 46301.80 | 0.78 |
![]() | Matins (William Haggas, Hector Crouch) | 5/4 | WINNER | 2.66 | detail | 2.20 | 2.78 | 2.54 | 0.81 | 63740 | / 132423 | 52135.09 | 1.22 |
![]() | Raggaas (Simon & Ed Crisford, Ross Coakley) | 5/1 | LOSER | 3.95 | detail | 5.10 | 4.00 | 3.90 | 1.72 | 29923 | / 132423 | 33954.65 | 0.88 |
| 2.02 | |||||||||||||
| Areti : REMOVED | ||||||||
| Back | Back | Back | Lay | Lay | Lay | |||
| 00:00 | Market:OPEN Horse:REMOVED | forecast 0/1 | 70 £3.13 | 100 £23.55 | 110 £2.37 | 600 £10 | 1000 £4 | 0 £0 |
| 18:15 | Market:OPEN Horse:REMOVED | forecast 0/1 | 210 £1.26 | 220 £2 | 240 £2.36 | 880 £1.34 | 900 £1.25 | 1000 £3.01 |
| 18:20 | Market:OPEN Horse:REMOVED | forecast 0/1 | 230 £4.24 | 240 £1.22 | 250 £4.2 | 280 £1.53 | 290 £1.39 | 300 £21.03 |
| 18:25 | Market:OPEN Horse:REMOVED | forecast 0/1 | 140 £67.67 | 150 £8.48 | 160 £3.19 | 190 £1.14 | 200 £1.28 | 210 £1.04 |
| 18:30 | Market:OPEN Horse:REMOVED | forecast 0/1 | 110 £2.99 | 120 £13.19 | 130 £4.63 | 150 £1.79 | 160 £6.5 | 170 £1.62 |
| 18:35 | Market:OPEN Horse:REMOVED | forecast 0/1 | 90 £9.6 | 95 £4.11 | 100 £3.19 | 110 £1.63 | 120 £1.89 | 130 £2.9 |
| 18:40 | Market:OPEN Horse:REMOVED | forecast 0/1 | 100 £20.18 | 110 £19.08 | 120 £1.63 | 140 £4.5 | 150 £6.77 | 160 £5.09 |
| 18:45 | Market:OPEN Horse:REMOVED | forecast 0/1 | 200 £10.4 | 230 £8.39 | 270 £9.4 | 320 £1.06 | 330 £1.16 | 340 £2.47 |
| 18:50 | Market:SUSPENDED Horse:REMOVED | forecast 0/1 | 0 £0 | 0 £0 | 0 £0 | 0 £0 | 0 £0 | 0 £0 |
| Garth Spirit : LOSER | ||||||||
| Back | Back | Back | Lay | Lay | Lay | |||
| 00:00 | Market:OPEN Horse:ACTIVE | forecast 100/1 | 70 £3.13 | 100 £23.55 | 110 £2.37 | 600 £10 | 1000 £4 | 0 £0 |
| 18:15 | Market:OPEN Horse:ACTIVE | forecast 100/1 | 210 £1.26 | 220 £2 | 240 £2.36 | 880 £1.34 | 900 £1.25 | 1000 £3.01 |
| 18:20 | Market:OPEN Horse:ACTIVE | forecast 100/1 | 230 £4.24 | 240 £1.22 | 250 £4.2 | 280 £1.53 | 290 £1.39 | 300 £21.03 |
| 18:25 | Market:OPEN Horse:ACTIVE | forecast 100/1 | 140 £67.67 | 150 £8.48 | 160 £3.19 | 190 £1.14 | 200 £1.28 | 210 £1.04 |
| 18:30 | Market:OPEN Horse:ACTIVE | forecast 100/1 | 110 £2.99 | 120 £13.19 | 130 £4.63 | 150 £1.79 | 160 £6.5 | 170 £1.62 |
| 18:35 | Market:OPEN Horse:ACTIVE | forecast 100/1 | 90 £9.6 | 95 £4.11 | 100 £3.19 | 110 £1.63 | 120 £1.89 | 130 £2.9 |
| 18:40 | Market:OPEN Horse:ACTIVE | forecast 100/1 | 100 £20.18 | 110 £19.08 | 120 £1.63 | 140 £4.5 | 150 £6.77 | 160 £5.09 |
| 18:45 | Market:OPEN Horse:ACTIVE | forecast 100/1 | 200 £10.4 | 230 £8.39 | 270 £9.4 | 320 £1.06 | 330 £1.16 | 340 £2.47 |
| 18:50 | Market:SUSPENDED Horse:ACTIVE | forecast 100/1 | 0 £0 | 0 £0 | 0 £0 | 0 £0 | 0 £0 | 0 £0 |
| Kinetic Impact : LOSER | ||||||||
| Back | Back | Back | Lay | Lay | Lay | |||
| 00:00 | Market:OPEN Horse:ACTIVE | forecast 3/2 | 3.15 £3.43 | 3.2 £2.66 | 3.25 £3.34 | 3.9 £2.09 | 4 £20 | 7.8 £2.76 |
| 18:15 | Market:OPEN Horse:ACTIVE | forecast 3/2 | 2.98 £118.72 | 3 £84.93 | 3.05 £38 | 3.1 £49.35 | 3.15 £44.9 | 3.2 £18.96 |
| 18:20 | Market:OPEN Horse:ACTIVE | forecast 3/2 | 3 £100.88 | 3.05 £71.78 | 3.1 £66.92 | 3.15 £131.64 | 3.2 £86.89 | 3.25 £30.98 |
| 18:25 | Market:OPEN Horse:ACTIVE | forecast 3/2 | 2.96 £143.17 | 2.98 £131.77 | 3 £137.48 | 3.05 £37.22 | 3.1 £93.6 | 3.15 £15.73 |
| 18:30 | Market:OPEN Horse:ACTIVE | forecast 3/2 | 2.96 £104.95 | 2.98 £185.76 | 3 £103.29 | 3.05 £102.1 | 3.1 £111.22 | 3.15 £32.91 |
| 18:35 | Market:OPEN Horse:ACTIVE | forecast 3/2 | 2.84 £134.48 | 2.86 £112.02 | 2.88 £25 | 2.9 £117.43 | 2.92 £41.55 | 2.94 £69.89 |
| 18:40 | Market:OPEN Horse:ACTIVE | forecast 3/2 | 2.54 £223.69 | 2.56 £194.16 | 2.58 £4.59 | 2.6 £80.16 | 2.62 £142.27 | 2.64 £265.13 |
| 18:45 | Market:OPEN Horse:ACTIVE | forecast 3/2 | 2.82 £134.81 | 2.84 £109.74 | 2.86 £9.51 | 2.88 £104.23 | 2.9 £46.66 | 2.92 £71.2 |
| 18:50 | Market:SUSPENDED Horse:ACTIVE | forecast 3/2 | 0 £0 | 0 £0 | 0 £0 | 0 £0 | 0 £0 | 0 £0 |
| Matins : WINNER | ||||||||
| Back | Back | Back | Lay | Lay | Lay | |||
| 00:00 | Market:OPEN Horse:ACTIVE | forecast 5/4 | 1.96 £6 | 1.97 £6 | 1.98 £1.57 | 2.68 £2.11 | 2.7 £6 | 2.74 £6 |
| 18:15 | Market:OPEN Horse:ACTIVE | forecast 5/4 | 2.02 £22.54 | 2.04 £47.35 | 2.06 £28.12 | 2.1 £15 | 2.12 £8.51 | 2.14 £27.28 |
| 18:20 | Market:OPEN Horse:ACTIVE | forecast 5/4 | 1.98 £32.63 | 1.99 £320.97 | 2 £107.54 | 2.02 £135.87 | 2.04 £122.04 | 2.06 £77.75 |
| 18:25 | Market:OPEN Horse:ACTIVE | forecast 5/4 | 2.02 £57.25 | 2.04 £200.73 | 2.06 £38.17 | 2.08 £58.16 | 2.1 £129.01 | 2.12 £79.78 |
| 18:30 | Market:OPEN Horse:ACTIVE | forecast 5/4 | 2.06 £192.04 | 2.08 £93.83 | 2.1 £71.92 | 2.12 £60.45 | 2.14 £27.98 | 2.16 £62.78 |
| 18:35 | Market:OPEN Horse:ACTIVE | forecast 5/4 | 2.16 £181.66 | 2.18 £119.68 | 2.2 £93.34 | 2.22 £17.67 | 2.24 £104.08 | 2.26 £110.09 |
| 18:40 | Market:OPEN Horse:ACTIVE | forecast 5/4 | 2.74 £237.06 | 2.76 £257.23 | 2.78 £88.88 | 2.8 £54.44 | 2.82 £135.95 | 2.84 £150.47 |
| 18:45 | Market:OPEN Horse:ACTIVE | forecast 5/4 | 2.5 £66.15 | 2.52 £78.44 | 2.54 £120.56 | 2.58 £90.11 | 2.6 £148.79 | 2.62 £122.6 |
| 18:50 | Market:SUSPENDED Horse:ACTIVE | forecast 5/4 | 0 £0 | 0 £0 | 0 £0 | 0 £0 | 0 £0 | 0 £0 |
| Raggaas : LOSER | ||||||||
| Back | Back | Back | Lay | Lay | Lay | |||
| 00:00 | Market:OPEN Horse:ACTIVE | forecast 5/1 | 2.26 £9.78 | 4.3 £2.23 | 4.4 £1.54 | 9 £1.62 | 9.2 £3.02 | 10.5 £2.59 |
| 18:15 | Market:OPEN Horse:ACTIVE | forecast 5/1 | 5 £62.99 | 5.1 £47.36 | 5.2 £28.87 | 5.4 £19.88 | 5.5 £14.04 | 5.6 £14.78 |
| 18:20 | Market:OPEN Horse:ACTIVE | forecast 5/1 | 5.3 £28.01 | 5.4 £49.08 | 5.5 £37.42 | 5.6 £101.38 | 5.7 £18.58 | 5.8 £34.3 |
| 18:25 | Market:OPEN Horse:ACTIVE | forecast 5/1 | 5.3 £78.79 | 5.4 £80.94 | 5.5 £64.49 | 5.6 £13.47 | 5.7 £51.9 | 5.8 £37.86 |
| 18:30 | Market:OPEN Horse:ACTIVE | forecast 5/1 | 5 £42 | 5.1 £43.65 | 5.2 £112.9 | 5.3 £23.17 | 5.4 £71.34 | 5.5 £53.74 |
| 18:35 | Market:OPEN Horse:ACTIVE | forecast 5/1 | 4.9 £33.61 | 5 £97.54 | 5.1 £95.03 | 5.2 £50.21 | 5.3 £57.91 | 5.4 £69.07 |
| 18:40 | Market:OPEN Horse:ACTIVE | forecast 5/1 | 3.9 £290.74 | 3.95 £156.47 | 4 £167.31 | 4.1 £51.71 | 4.2 £165.19 | 4.3 £154.15 |
| 18:45 | Market:OPEN Horse:ACTIVE | forecast 5/1 | 3.8 £171.65 | 3.85 £106.09 | 3.9 £75.39 | 3.95 £34.33 | 4 £107.33 | 4.1 £118.8 |
| 18:50 | Market:SUSPENDED Horse:ACTIVE | forecast 5/1 | 0 £0 | 0 £0 | 0 £0 | 0 £0 | 0 £0 | 0 £0 |